Silva, Missouri
Current Conditions -  °F | °C
As of 1:35 PM on Tuesday 21 Oct 2014 (Local Time) from KFAM Reporting Station
Clear Clear  
Wind Chill: 68°   Ceiling: Unl
Heat Index: 68°   Visibility: 10mi
Dew Point: 43°   Wind: 5mph
Humidity: 40%   Direction: 290°WNW
Pressure: 30.12"   Gusts: NA
Location:  37.18°N, 90.46°W
Report Text: KFAM 211835Z AUTO 29004KT 10SM CLR 20/06 A3012 RMK AO1
Loading
Personal Weather Stations






























Interactive Weather Map
Tropical Storm Tracking
New forecast layout! Learn more

10-Day Weather Forecast

Advertisements
Track Severe Weather on mobile